sensor_id;sensor_type;location;lat;lon;timestamp;pressure;altitude;pressure_sealevel;temperature;humidity
74343;BME280;62767;50.300;8.070;2023-11-22T00:00:11;100674.41;;;18.41;48.42
74343;BME280;62767;50.300;8.070;2023-11-22T00:02:39;100662.41;;;18.37;48.98
74343;BME280;62767;50.300;8.070;2023-11-22T00:05:06;100663.13;;;18.39;49.04
74343;BME280;62767;50.300;8.070;2023-11-22T00:07:32;100664.91;;;18.39;49.21
74343;BME280;62767;50.300;8.070;2023-11-22T00:09:58;100663.84;;;18.41;49.02
74343;BME280;62767;50.300;8.070;2023-11-22T00:12:24;100670.56;;;18.34;48.95
74343;BME280;62767;50.300;8.070;2023-11-22T00:14:50;100679.19;;;18.25;49.42
74343;BME280;62767;50.300;8.070;2023-11-22T00:17:17;100675.09;;;18.32;49.10
74343;BME280;62767;50.300;8.070;2023-11-22T00:19:45;100680.16;;;18.35;49.07
74343;BME280;62767;50.300;8.070;2023-11-22T00:22:11;100681.09;;;18.34;49.08
74343;BME280;62767;50.300;8.070;2023-11-22T00:24:39;100679.03;;;18.27;49.37
74343;BME280;62767;50.300;8.070;2023-11-22T00:27:06;100684.09;;;18.41;48.99
74343;BME280;62767;50.300;8.070;2023-11-22T00:29:32;100688.06;;;18.35;48.90
74343;BME280;62767;50.300;8.070;2023-11-22T00:31:58;100695.47;;;18.41;48.94
74343;BME280;62767;50.300;8.070;2023-11-22T00:34:24;100699.28;;;18.37;49.13
74343;BME280;62767;50.300;8.070;2023-11-22T00:36:50;100700.75;;;18.30;49.15
74343;BME280;62767;50.300;8.070;2023-11-22T00:39:16;100700.03;;;18.39;48.92
74343;BME280;62767;50.300;8.070;2023-11-22T00:41:43;100715.72;;;18.41;48.91
74343;BME280;62767;50.300;8.070;2023-11-22T00:44:09;100711.03;;;18.33;49.12
74343;BME280;62767;50.300;8.070;2023-11-22T00:46:35;100703.25;;;18.32;49.27
74343;BME280;62767;50.300;8.070;2023-11-22T00:49:03;100704.69;;;18.36;49.02
74343;BME280;62767;50.300;8.070;2023-11-22T00:51:32;100703.38;;;18.30;49.22
74343;BME280;62767;50.300;8.070;2023-11-22T00:53:58;100710.81;;;18.36;48.99
74343;BME280;62767;50.300;8.070;2023-11-22T00:56:25;100711.41;;;18.40;49.06
74343;BME280;62767;50.300;8.070;2023-11-22T00:58:51;100709.03;;;18.37;49.11
74343;BME280;62767;50.300;8.070;2023-11-22T01:01:21;100713.94;;;18.30;48.84
74343;BME280;62767;50.300;8.070;2023-11-22T01:03:47;100722.41;;;18.34;49.25
74343;BME280;62767;50.300;8.070;2023-11-22T01:06:13;100711.88;;;18.34;49.00
74343;BME280;62767;50.300;8.070;2023-11-22T01:08:39;100721.09;;;18.28;49.29
74343;BME280;62767;50.300;8.070;2023-11-22T01:11:05;100725.06;;;18.34;49.21
74343;BME280;62767;50.300;8.070;2023-11-22T01:13:32;100727.31;;;18.38;49.14
74343;BME280;62767;50.300;8.070;2023-11-22T01:15:58;100727.44;;;18.26;49.43
74343;BME280;62767;50.300;8.070;2023-11-22T01:18:24;100726.97;;;18.32;49.37
74343;BME280;62767;50.300;8.070;2023-11-22T01:20:50;100720.63;;;18.34;49.15
74343;BME280;62767;50.300;8.070;2023-11-22T01:23:15;100728.66;;;18.33;49.21
74343;BME280;62767;50.300;8.070;2023-11-22T01:25:41;100732.38;;;18.30;49.26
74343;BME280;62767;50.300;8.070;2023-11-22T01:28:07;100729.84;;;18.29;49.23
74343;BME280;62767;50.300;8.070;2023-11-22T01:30:32;100731.25;;;18.22;49.42
74343;BME280;62767;50.300;8.070;2023-11-22T01:32:58;100739.66;;;18.27;49.40
74343;BME280;62767;50.300;8.070;2023-11-22T01:35:24;100754.03;;;18.23;49.21
74343;BME280;62767;50.300;8.070;2023-11-22T01:37:50;100748.38;;;18.16;49.45
74343;BME280;62767;50.300;8.070;2023-11-22T01:40:16;100753.66;;;18.16;49.58
74343;BME280;62767;50.300;8.070;2023-11-22T01:42:42;100756.31;;;18.27;49.21
74343;BME280;62767;50.300;8.070;2023-11-22T01:45:08;100753.19;;;18.22;49.38
74343;BME280;62767;50.300;8.070;2023-11-22T01:47:36;100748.47;;;18.15;49.50
74343;BME280;62767;50.300;8.070;2023-11-22T01:50:04;100751.50;;;18.21;49.23
74343;BME280;62767;50.300;8.070;2023-11-22T01:52:30;100760.03;;;18.25;49.25
74343;BME280;62767;50.300;8.070;2023-11-22T01:54:56;100764.53;;;18.11;49.56
74343;BME280;62767;50.300;8.070;2023-11-22T01:57:22;100763.00;;;18.20;49.30
74343;BME280;62767;50.300;8.070;2023-11-22T01:59:48;100770.50;;;18.02;49.23
74343;BME280;62767;50.300;8.070;2023-11-22T02:02:14;100766.41;;;17.51;49.72
74343;BME280;62767;50.300;8.070;2023-11-22T02:04:39;100776.16;;;16.88;50.92
74343;BME280;62767;50.300;8.070;2023-11-22T02:07:05;100777.31;;;16.59;50.98
74343;BME280;62767;50.300;8.070;2023-11-22T02:09:31;100785.31;;;16.58;50.94
74343;BME280;62767;50.300;8.070;2023-11-22T02:11:57;100779.84;;;16.73;51.57
74343;BME280;62767;50.300;8.070;2023-11-22T02:14:23;100782.06;;;16.79;51.24
74343;BME280;62767;50.300;8.070;2023-11-22T02:16:49;100780.03;;;16.83;50.57
74343;BME280;62767;50.300;8.070;2023-11-22T02:19:16;100776.88;;;16.91;51.55
74343;BME280;62767;50.300;8.070;2023-11-22T02:21:43;100774.69;;;16.97;49.68
74343;BME280;62767;50.300;8.070;2023-11-22T02:24:10;100786.72;;;17.12;50.29
74343;BME280;62767;50.300;8.070;2023-11-22T02:26:36;100786.75;;;17.49;50.36
74343;BME280;62767;50.300;8.070;2023-11-22T02:29:03;100778.50;;;17.66;48.88
74343;BME280;62767;50.300;8.070;2023-11-22T02:31:32;100773.63;;;17.73;48.91
74343;BME280;62767;50.300;8.070;2023-11-22T02:33:59;100770.63;;;18.01;47.95
74343;BME280;62767;50.300;8.070;2023-11-22T02:36:25;100763.84;;;18.21;47.91
74343;BME280;62767;50.300;8.070;2023-11-22T02:38:51;100772.03;;;18.40;47.98
74343;BME280;62767;50.300;8.070;2023-11-22T02:41:17;100770.13;;;18.53;47.58
74343;BME280;62767;50.300;8.070;2023-11-22T02:43:44;100774.97;;;18.70;46.66
74343;BME280;62767;50.300;8.070;2023-11-22T02:46:09;100768.28;;;18.77;46.44
74343;BME280;62767;50.300;8.070;2023-11-22T02:48:35;100769.09;;;19.00;46.15
74343;BME280;62767;50.300;8.070;2023-11-22T02:51:01;100762.63;;;19.04;46.37
74343;BME280;62767;50.300;8.070;2023-11-22T02:53:27;100782.97;;;19.13;46.90
74343;BME280;62767;50.300;8.070;2023-11-22T02:55:52;100784.56;;;19.16;45.57
74343;BME280;62767;50.300;8.070;2023-11-22T02:58:21;100792.09;;;19.20;45.47
74343;BME280;62767;50.300;8.070;2023-11-22T03:00:47;100789.53;;;19.41;45.51
74343;BME280;62767;50.300;8.070;2023-11-22T03:03:13;100799.75;;;19.57;45.58
74343;BME280;62767;50.300;8.070;2023-11-22T03:05:39;100813.53;;;19.60;45.14
74343;BME280;62767;50.300;8.070;2023-11-22T03:08:05;100811.34;;;19.65;44.72
74343;BME280;62767;50.300;8.070;2023-11-22T03:10:33;100805.34;;;19.74;45.06
74343;BME280;62767;50.300;8.070;2023-11-22T03:12:59;100814.84;;;19.66;44.49
74343;BME280;62767;50.300;8.070;2023-11-22T03:15:26;100811.19;;;19.78;45.03
74343;BME280;62767;50.300;8.070;2023-11-22T03:17:52;100810.25;;;19.79;45.32
74343;BME280;62767;50.300;8.070;2023-11-22T03:20:17;100809.13;;;19.82;45.15
74343;BME280;62767;50.300;8.070;2023-11-22T03:22:44;100810.38;;;19.78;44.98
74343;BME280;62767;50.300;8.070;2023-11-22T03:25:10;100810.31;;;19.89;44.50
74343;BME280;62767;50.300;8.070;2023-11-22T03:27:37;100806.50;;;19.82;44.46
74343;BME280;62767;50.300;8.070;2023-11-22T03:30:04;100807.53;;;19.69;44.20
74343;BME280;62767;50.300;8.070;2023-11-22T03:32:29;100818.47;;;19.54;44.50
74343;BME280;62767;50.300;8.070;2023-11-22T03:34:55;100810.53;;;19.43;44.82
74343;BME280;62767;50.300;8.070;2023-11-22T03:37:23;100817.91;;;19.28;45.40
74343;BME280;62767;50.300;8.070;2023-11-22T03:39:49;100819.81;;;19.15;46.28
74343;BME280;62767;50.300;8.070;2023-11-22T03:42:15;100827.25;;;19.10;46.38
74343;BME280;62767;50.300;8.070;2023-11-22T03:44:44;100831.69;;;18.98;45.79
74343;BME280;62767;50.300;8.070;2023-11-22T03:47:10;100847.16;;;18.80;46.06
74343;BME280;62767;50.300;8.070;2023-11-22T03:49:39;100842.81;;;18.79;46.60
74343;BME280;62767;50.300;8.070;2023-11-22T03:52:05;100848.09;;;18.79;47.83
74343;BME280;62767;50.300;8.070;2023-11-22T03:54:31;100863.78;;;18.59;46.95
74343;BME280;62767;50.300;8.070;2023-11-22T03:56:58;100858.06;;;18.41;47.06
74343;BME280;62767;50.300;8.070;2023-11-22T03:59:24;100864.25;;;18.29;47.20
74343;BME280;62767;50.300;8.070;2023-11-22T04:01:49;100865.94;;;18.30;46.16
74343;BME280;62767;50.300;8.070;2023-11-22T04:04:16;100871.69;;;18.35;47.05
74343;BME280;62767;50.300;8.070;2023-11-22T04:06:42;100868.63;;;18.52;47.53
74343;BME280;62767;50.300;8.070;2023-11-22T04:09:07;100872.19;;;18.75;48.03
74343;BME280;62767;50.300;8.070;2023-11-22T04:11:34;100879.16;;;18.87;46.75
74343;BME280;62767;50.300;8.070;2023-11-22T04:14:00;100874.59;;;18.89;46.82
74343;BME280;62767;50.300;8.070;2023-11-22T04:16:26;100881.69;;;18.88;46.27
74343;BME280;62767;50.300;8.070;2023-11-22T04:18:51;100885.50;;;18.84;45.48
74343;BME280;62767;50.300;8.070;2023-11-22T04:21:17;100888.00;;;18.64;44.15
74343;BME280;62767;50.300;8.070;2023-11-22T04:23:42;100894.50;;;18.47;45.31
74343;BME280;62767;50.300;8.070;2023-11-22T04:26:08;100888.44;;;18.58;45.47
74343;BME280;62767;50.300;8.070;2023-11-22T04:28:33;100895.56;;;18.79;47.18
74343;BME280;62767;50.300;8.070;2023-11-22T04:31:00;100893.78;;;18.91;46.26
74343;BME280;62767;50.300;8.070;2023-11-22T04:33:25;100903.28;;;19.05;46.98
74343;BME280;62767;50.300;8.070;2023-11-22T04:35:53;100916.03;;;19.11;45.74
74343;BME280;62767;50.300;8.070;2023-11-22T04:38:19;100915.66;;;19.26;46.29
74343;BME280;62767;50.300;8.070;2023-11-22T04:40:45;100921.91;;;19.25;46.53
74343;BME280;62767;50.300;8.070;2023-11-22T04:43:11;100928.59;;;19.18;46.39
74343;BME280;62767;50.300;8.070;2023-11-22T04:45:37;100928.97;;;19.14;46.42
74343;BME280;62767;50.300;8.070;2023-11-22T04:48:03;100939.88;;;19.20;47.39
74343;BME280;62767;50.300;8.070;2023-11-22T04:50:29;100940.72;;;19.10;46.27
74343;BME280;62767;50.300;8.070;2023-11-22T04:52:55;100944.41;;;18.96;46.97
74343;BME280;62767;50.300;8.070;2023-11-22T04:55:21;100941.16;;;18.92;46.77
74343;BME280;62767;50.300;8.070;2023-11-22T04:57:49;100941.50;;;18.77;47.40
74343;BME280;62767;50.300;8.070;2023-11-22T05:00:15;100941.09;;;18.70;47.83
74343;BME280;62767;50.300;8.070;2023-11-22T05:02:40;100942.41;;;18.65;48.83
74343;BME280;62767;50.300;8.070;2023-11-22T05:05:07;100950.16;;;18.55;49.38
74343;BME280;62767;50.300;8.070;2023-11-22T05:07:35;100953.94;;;18.51;50.02
74343;BME280;62767;50.300;8.070;2023-11-22T05:10:01;100953.34;;;18.47;49.59
74343;BME280;62767;50.300;8.070;2023-11-22T05:12:28;100957.38;;;18.40;49.93
74343;BME280;62767;50.300;8.070;2023-11-22T05:14:54;100962.31;;;18.45;52.34
74343;BME280;62767;50.300;8.070;2023-11-22T05:17:19;100967.34;;;18.72;52.18
74343;BME280;62767;50.300;8.070;2023-11-22T05:19:45;100951.69;;;18.81;52.00
74343;BME280;62767;50.300;8.070;2023-11-22T05:22:11;100951.09;;;18.89;52.02
74343;BME280;62767;50.300;8.070;2023-11-22T05:24:36;100957.09;;;18.91;52.03
74343;BME280;62767;50.300;8.070;2023-11-22T05:27:04;100956.53;;;18.99;51.78
74343;BME280;62767;50.300;8.070;2023-11-22T05:29:30;100948.13;;;18.93;52.26
74343;BME280;62767;50.300;8.070;2023-11-22T05:31:55;100948.84;;;18.96;52.03
74343;BME280;62767;50.300;8.070;2023-11-22T05:34:21;100954.72;;;18.99;52.06
74343;BME280;62767;50.300;8.070;2023-11-22T05:36:46;100956.78;;;19.07;52.11
74343;BME280;62767;50.300;8.070;2023-11-22T05:39:14;100955.72;;;19.09;51.79
74343;BME280;62767;50.300;8.070;2023-11-22T05:41:39;100960.53;;;19.26;51.32
74343;BME280;62767;50.300;8.070;2023-11-22T05:44:05;100970.31;;;19.02;51.89
74343;BME280;62767;50.300;8.070;2023-11-22T05:46:33;100967.63;;;18.80;52.44
74343;BME280;62767;50.300;8.070;2023-11-22T05:48:59;100969.78;;;18.75;52.39
74343;BME280;62767;50.300;8.070;2023-11-22T05:51:26;100971.91;;;18.70;52.28
74343;BME280;62767;50.300;8.070;2023-11-22T05:53:52;100980.16;;;18.65;52.40
74343;BME280;62767;50.300;8.070;2023-11-22T05:56:17;100992.28;;;18.68;52.23
74343;BME280;62767;50.300;8.070;2023-11-22T05:58:44;100988.78;;;18.67;52.23
74343;BME280;62767;50.300;8.070;2023-11-22T06:01:10;100991.06;;;18.72;51.85
74343;BME280;62767;50.300;8.070;2023-11-22T06:03:39;100998.03;;;18.73;51.86
74343;BME280;62767;50.300;8.070;2023-11-22T06:06:05;101007.19;;;18.80;51.54
74343;BME280;62767;50.300;8.070;2023-11-22T06:08:31;101018.09;;;18.75;51.53
74343;BME280;62767;50.300;8.070;2023-11-22T06:10:57;101021.72;;;18.85;51.15
74343;BME280;62767;50.300;8.070;2023-11-22T06:13:25;101013.69;;;18.87;51.27
74343;BME280;62767;50.300;8.070;2023-11-22T06:15:50;101008.13;;;18.79;51.15
74343;BME280;62767;50.300;8.070;2023-11-22T06:18:16;101004.66;;;18.78;51.23
74343;BME280;62767;50.300;8.070;2023-11-22T06:20:42;101017.34;;;18.73;49.90
74343;BME280;62767;50.300;8.070;2023-11-22T06:23:08;101039.97;;;18.65;50.10
74343;BME280;62767;50.300;8.070;2023-11-22T06:25:34;101043.16;;;18.57;49.55
74343;BME280;62767;50.300;8.070;2023-11-22T06:28:02;101044.94;;;18.57;50.50
74343;BME280;62767;50.300;8.070;2023-11-22T06:30:28;101052.13;;;18.55;51.13
74343;BME280;62767;50.300;8.070;2023-11-22T06:32:53;101050.75;;;18.49;50.72
74343;BME280;62767;50.300;8.070;2023-11-22T06:35:22;101056.84;;;18.49;51.18
74343;BME280;62767;50.300;8.070;2023-11-22T06:37:48;101058.13;;;18.57;51.03
74343;BME280;62767;50.300;8.070;2023-11-22T06:40:14;101059.81;;;18.58;49.71
74343;BME280;62767;50.300;8.070;2023-11-22T06:42:40;101060.22;;;18.64;50.61
74343;BME280;62767;50.300;8.070;2023-11-22T06:45:07;101061.28;;;18.62;50.52
74343;BME280;62767;50.300;8.070;2023-11-22T06:47:42;101059.38;;;18.64;50.38
74343;BME280;62767;50.300;8.070;2023-11-22T06:50:08;101064.84;;;18.61;50.41
74343;BME280;62767;50.300;8.070;2023-11-22T06:52:43;101065.94;;;18.58;50.43
74343;BME280;62767;50.300;8.070;2023-11-22T06:55:09;101073.00;;;18.58;50.46
74343;BME280;62767;50.300;8.070;2023-11-22T06:57:35;101078.09;;;18.48;50.79
74343;BME280;62767;50.300;8.070;2023-11-22T07:00:02;101084.81;;;18.52;50.69
74343;BME280;62767;50.300;8.070;2023-11-22T07:02:33;101091.13;;;18.49;50.71
74343;BME280;62767;50.300;8.070;2023-11-22T07:05:01;101094.75;;;18.48;50.33
74343;BME280;62767;50.300;8.070;2023-11-22T07:07:26;101095.78;;;18.46;50.49
74343;BME280;62767;50.300;8.070;2023-11-22T07:09:52;101104.53;;;18.46;50.75
74343;BME280;62767;50.300;8.070;2023-11-22T07:12:18;101101.50;;;18.40;50.83
74343;BME280;62767;50.300;8.070;2023-11-22T07:14:44;101105.06;;;18.39;50.88
74343;BME280;62767;50.300;8.070;2023-11-22T07:17:10;101102.44;;;18.39;50.73
74343;BME280;62767;50.300;8.070;2023-11-22T07:19:36;101100.13;;;18.34;50.76
74343;BME280;62767;50.300;8.070;2023-11-22T07:22:04;101102.78;;;18.34;50.78
74343;BME280;62767;50.300;8.070;2023-11-22T07:24:35;101107.53;;;18.29;50.83
74343;BME280;62767;50.300;8.070;2023-11-22T07:27:02;101110.16;;;18.29;50.88
74343;BME280;62767;50.300;8.070;2023-11-22T07:29:28;101108.56;;;18.27;50.70
74343;BME280;62767;50.300;8.070;2023-11-22T07:31:54;101097.41;;;18.23;50.79
74343;BME280;62767;50.300;8.070;2023-11-22T07:34:21;101099.22;;;18.23;50.89
74343;BME280;62767;50.300;8.070;2023-11-22T07:36:47;101096.81;;;18.20;50.78
74343;BME280;62767;50.300;8.070;2023-11-22T07:39:13;101099.44;;;18.20;50.63
74343;BME280;62767;50.300;8.070;2023-11-22T07:41:38;101090.69;;;18.19;50.79
74343;BME280;62767;50.300;8.070;2023-11-22T07:44:04;101073.41;;;18.15;50.76
74343;BME280;62767;50.300;8.070;2023-11-22T07:46:30;101084.06;;;18.14;50.83
74343;BME280;62767;50.300;8.070;2023-11-22T07:48:56;101083.22;;;18.13;50.69
74343;BME280;62767;50.300;8.070;2023-11-22T07:51:22;101082.69;;;18.08;50.81
74343;BME280;62767;50.300;8.070;2023-11-22T07:53:49;101081.84;;;18.07;50.71
74343;BME280;62767;50.300;8.070;2023-11-22T07:56:15;101081.22;;;18.04;50.66
74343;BME280;62767;50.300;8.070;2023-11-22T07:58:41;101085.75;;;18.02;50.62
74343;BME280;62767;50.300;8.070;2023-11-22T08:01:07;101089.34;;;18.01;50.62
74343;BME280;62767;50.300;8.070;2023-11-22T08:03:39;101097.25;;;18.01;50.81
74343;BME280;62767;50.300;8.070;2023-11-22T08:06:06;101105.88;;;18.03;50.66
74343;BME280;62767;50.300;8.070;2023-11-22T08:08:33;101110.00;;;17.94;50.88
74343;BME280;62767;50.300;8.070;2023-11-22T08:11:03;101121.28;;;17.96;50.79
74343;BME280;62767;50.300;8.070;2023-11-22T08:13:29;101123.91;;;17.96;50.78
74343;BME280;62767;50.300;8.070;2023-11-22T08:15:55;101138.22;;;17.92;50.78
74343;BME280;62767;50.300;8.070;2023-11-22T08:18:21;101137.28;;;17.93;50.66
74343;BME280;62767;50.300;8.070;2023-11-22T08:20:47;101140.75;;;17.94;50.64
74343;BME280;62767;50.300;8.070;2023-11-22T08:23:13;101137.09;;;17.96;50.68
74343;BME280;62767;50.300;8.070;2023-11-22T08:25:40;101140.97;;;17.91;50.63
74343;BME280;62767;50.300;8.070;2023-11-22T08:28:06;101141.19;;;17.88;50.80
74343;BME280;62767;50.300;8.070;2023-11-22T08:30:34;101144.66;;;17.88;50.60
74343;BME280;62767;50.300;8.070;2023-11-22T08:33:01;101146.84;;;17.82;50.83
74343;BME280;62767;50.300;8.070;2023-11-22T08:35:27;101137.91;;;17.84;50.65
74343;BME280;62767;50.300;8.070;2023-11-22T08:37:53;101136.22;;;17.83;50.65
74343;BME280;62767;50.300;8.070;2023-11-22T08:40:19;101140.97;;;17.78;50.70
74343;BME280;62767;50.300;8.070;2023-11-22T08:42:48;101148.53;;;17.70;50.83
74343;BME280;62767;50.300;8.070;2023-11-22T08:45:14;101150.97;;;17.73;50.66
74343;BME280;62767;50.300;8.070;2023-11-22T08:47:41;101152.84;;;17.71;50.80
74343;BME280;62767;50.300;8.070;2023-11-22T08:50:08;101160.31;;;17.64;50.68
74343;BME280;62767;50.300;8.070;2023-11-22T08:52:39;101152.72;;;17.60;50.63
74343;BME280;62767;50.300;8.070;2023-11-22T08:55:08;101150.72;;;17.63;50.63
74343;BME280;62767;50.300;8.070;2023-11-22T08:57:37;101136.56;;;17.52;50.00
74343;BME280;62767;50.300;8.070;2023-11-22T09:00:06;101133.94;;;17.52;50.81
74343;BME280;62767;50.300;8.070;2023-11-22T09:02:34;101137.63;;;17.49;50.73
74343;BME280;62767;50.300;8.070;2023-11-22T09:05:02;101144.59;;;17.50;50.63
74343;BME280;62767;50.300;8.070;2023-11-22T09:07:31;101148.03;;;17.51;50.42
74343;BME280;62767;50.300;8.070;2023-11-22T09:09:56;101155.13;;;17.50;50.60
74343;BME280;62767;50.300;8.070;2023-11-22T09:12:23;101147.50;;;17.46;50.66
74343;BME280;62767;50.300;8.070;2023-11-22T09:14:49;101153.16;;;17.40;50.49
74343;BME280;62767;50.300;8.070;2023-11-22T09:17:15;101150.53;;;17.40;50.47
74343;BME280;62767;50.300;8.070;2023-11-22T09:19:40;101159.28;;;17.40;50.64
74343;BME280;62767;50.300;8.070;2023-11-22T09:22:06;101152.22;;;17.41;50.66
74343;BME280;62767;50.300;8.070;2023-11-22T09:24:32;101151.91;;;17.45;50.44
74343;BME280;62767;50.300;8.070;2023-11-22T09:26:58;101159.94;;;17.44;50.41
74343;BME280;62767;50.300;8.070;2023-11-22T09:29:26;101157.50;;;17.41;50.37
74343;BME280;62767;50.300;8.070;2023-11-22T09:31:51;101168.03;;;17.41;50.44
74343;BME280;62767;50.300;8.070;2023-11-22T09:34:17;101172.97;;;17.33;50.61
74343;BME280;62767;50.300;8.070;2023-11-22T09:36:43;101181.03;;;17.29;50.46
74343;BME280;62767;50.300;8.070;2023-11-22T09:39:09;101182.81;;;17.29;50.31
74343;BME280;62767;50.300;8.070;2023-11-22T09:41:35;101190.94;;;17.26;50.55
74343;BME280;62767;50.300;8.070;2023-11-22T09:44:01;101201.75;;;17.21;50.36
74343;BME280;62767;50.300;8.070;2023-11-22T09:46:28;101216.03;;;17.17;50.34
74343;BME280;62767;50.300;8.070;2023-11-22T09:48:56;101229.13;;;17.05;49.31
74343;BME280;62767;50.300;8.070;2023-11-22T09:51:32;101238.31;;;17.12;49.78
74343;BME280;62767;50.300;8.070;2023-11-22T09:53:59;101234.00;;;17.11;50.36
74343;BME280;62767;50.300;8.070;2023-11-22T09:56:30;101231.94;;;17.16;50.38
74343;BME280;62767;50.300;8.070;2023-11-22T09:58:58;101217.72;;;17.18;49.51
74343;BME280;62767;50.300;8.070;2023-11-22T10:01:27;101202.16;;;17.15;50.29
74343;BME280;62767;50.300;8.070;2023-11-22T10:04:02;101204.66;;;17.17;50.08
74343;BME280;62767;50.300;8.070;2023-11-22T10:06:31;101217.81;;;17.17;50.24
74343;BME280;62767;50.300;8.070;2023-11-22T10:09:01;101209.84;;;17.18;49.96
74343;BME280;62767;50.300;8.070;2023-11-22T10:11:27;101205.50;;;17.17;49.98
74343;BME280;62767;50.300;8.070;2023-11-22T10:13:54;101203.81;;;17.16;50.00
74343;BME280;62767;50.300;8.070;2023-11-22T10:16:22;101208.13;;;17.17;50.06
74343;BME280;62767;50.300;8.070;2023-11-22T10:18:48;101211.91;;;17.13;50.27
74343;BME280;62767;50.300;8.070;2023-11-22T10:21:29;101213.91;;;17.10;49.86
74343;BME280;62767;50.300;8.070;2023-11-22T10:24:02;101218.59;;;17.05;49.81
74343;BME280;62767;50.300;8.070;2023-11-22T10:26:28;101211.38;;;17.08;49.83
74343;BME280;62767;50.300;8.070;2023-11-22T10:28:54;101217.56;;;17.07;50.03
74343;BME280;62767;50.300;8.070;2023-11-22T10:31:21;101206.97;;;17.09;49.69
74343;BME280;62767;50.300;8.070;2023-11-22T10:33:47;101202.09;;;17.03;49.62
74343;BME280;62767;50.300;8.070;2023-11-22T10:36:14;101198.06;;;16.97;49.78
74343;BME280;62767;50.300;8.070;2023-11-22T10:38:41;101200.47;;;17.00;49.74
74343;BME280;62767;50.300;8.070;2023-11-22T10:41:08;101197.00;;;17.00;49.88
74343;BME280;62767;50.300;8.070;2023-11-22T10:43:37;101205.50;;;16.91;47.99
74343;BME280;62767;50.300;8.070;2023-11-22T10:46:03;101207.09;;;16.93;49.56
74343;BME280;62767;50.300;8.070;2023-11-22T10:48:31;101216.41;;;16.84;49.44
74343;BME280;62767;50.300;8.070;2023-11-22T10:51:01;101222.66;;;16.54;49.85
74343;BME280;62767;50.300;8.070;2023-11-22T10:53:34;101216.88;;;15.90;45.37
74343;BME280;62767;50.300;8.070;2023-11-22T10:56:17;101218.28;;;15.36;48.98
74343;BME280;62767;50.300;8.070;2023-11-22T10:58:49;101220.63;;;15.09;45.97
74343;BME280;62767;50.300;8.070;2023-11-22T11:01:16;101219.13;;;15.05;46.83
74343;BME280;62767;50.300;8.070;2023-11-22T11:03:46;101215.31;;;14.95;45.60
74343;BME280;62767;50.300;8.070;2023-11-22T11:06:20;101219.78;;;14.93;46.14
74343;BME280;62767;50.300;8.070;2023-11-22T11:08:53;101220.97;;;15.03;46.08
74343;BME280;62767;50.300;8.070;2023-11-22T11:11:20;101212.88;;;15.08;47.60
74343;BME280;62767;50.300;8.070;2023-11-22T11:13:47;101225.19;;;15.21;48.61
74343;BME280;62767;50.300;8.070;2023-11-22T11:16:13;101235.25;;;15.45;50.54
74343;BME280;62767;50.300;8.070;2023-11-22T11:18:40;101231.88;;;15.58;48.67
74343;BME280;62767;50.300;8.070;2023-11-22T11:21:09;101218.06;;;15.71;50.61
74343;BME280;62767;50.300;8.070;2023-11-22T11:23:39;101220.97;;;15.66;49.55
74343;BME280;62767;50.300;8.070;2023-11-22T11:26:17;101229.00;;;15.63;46.95
74343;BME280;62767;50.300;8.070;2023-11-22T11:28:49;101236.00;;;15.62;45.15
74343;BME280;62767;50.300;8.070;2023-11-22T11:31:16;101240.53;;;15.60;50.51
74343;BME280;62767;50.300;8.070;2023-11-22T11:36:24;101236.69;;;15.50;48.42
74343;BME280;62767;50.300;8.070;2023-11-22T11:38:55;101248.03;;;15.51;49.13
74343;BME280;62767;50.300;8.070;2023-11-22T11:41:41;101239.75;;;15.43;47.67
74343;BME280;62767;50.300;8.070;2023-11-22T11:44:08;101233.41;;;15.47;45.82
74343;BME280;62767;50.300;8.070;2023-11-22T11:46:38;101238.72;;;15.61;47.52
74343;BME280;62767;50.300;8.070;2023-11-22T11:49:08;101217.00;;;15.59;46.72
74343;BME280;62767;50.300;8.070;2023-11-22T11:51:34;101196.47;;;15.50;44.64
74343;BME280;62767;50.300;8.070;2023-11-22T11:54:00;101198.53;;;15.60;44.25
74343;BME280;62767;50.300;8.070;2023-11-22T11:56:26;101197.69;;;15.60;44.93
74343;BME280;62767;50.300;8.070;2023-11-22T11:58:56;101203.72;;;15.76;47.30
74343;BME280;62767;50.300;8.070;2023-11-22T12:01:24;101209.13;;;15.89;47.95
74343;BME280;62767;50.300;8.070;2023-11-22T12:03:50;101199.34;;;15.91;47.90
74343;BME280;62767;50.300;8.070;2023-11-22T12:06:16;101187.63;;;15.96;47.54
74343;BME280;62767;50.300;8.070;2023-11-22T12:08:45;101188.69;;;16.08;47.45
74343;BME280;62767;50.300;8.070;2023-11-22T12:11:13;101186.81;;;16.24;47.76
74343;BME280;62767;50.300;8.070;2023-11-22T12:13:41;101174.34;;;16.28;47.57
74343;BME280;62767;50.300;8.070;2023-11-22T12:16:16;101181.03;;;16.33;48.79
74343;BME280;62767;50.300;8.070;2023-11-22T12:18:43;101180.44;;;16.42;48.42
74343;BME280;62767;50.300;8.070;2023-11-22T12:21:09;101177.81;;;16.42;49.61
74343;BME280;62767;50.300;8.070;2023-11-22T12:23:38;101184.69;;;16.59;49.51
74343;BME280;62767;50.300;8.070;2023-11-22T12:26:04;101184.13;;;16.68;49.56
74343;BME280;62767;50.300;8.070;2023-11-22T12:28:30;101188.06;;;16.75;49.35
74343;BME280;62767;50.300;8.070;2023-11-22T12:31:10;101190.88;;;16.86;49.21
74343;BME280;62767;50.300;8.070;2023-11-22T12:33:37;101188.41;;;16.55;50.31
74343;BME280;62767;50.300;8.070;2023-11-22T12:36:03;101176.69;;;16.04;48.74
74343;BME280;62767;50.300;8.070;2023-11-22T12:38:29;101182.25;;;15.70;48.00
74343;BME280;62767;50.300;8.070;2023-11-22T12:40:58;101196.38;;;15.67;51.19
74343;BME280;62767;50.300;8.070;2023-11-22T12:43:24;101197.19;;;15.53;46.38
74343;BME280;62767;50.300;8.070;2023-11-22T12:46:04;101202.66;;;15.64;50.46
74343;BME280;62767;50.300;8.070;2023-11-22T12:48:32;101186.84;;;15.80;51.07
74343;BME280;62767;50.300;8.070;2023-11-22T12:50:59;101190.75;;;16.03;51.73